Kezdőlap
METAR-TAF:

METAR-TAF

Repülőterek :

Waterbury-Oxford Airport

Oxford, Connecticut, Amerikai Egyesült Államok

földrajzi szélesség: 41-29N, földrajzi hosszúság: 073-08W, magasság: 222 m

Jelenlegi meteorológiai megfigyelések

A jelentés 57 perccel ezelõtt készült, 21:51 UTC
Kelet-délkeleti szél 5 kt
Hőmérséklet -7°C
Páratartalom 93%
Légköri nyomás 1020 hPa
Látótávolság: 0.8 km
Szakadozott felhőzet 1500 lábon
Borult 2000 lábon
hó, zúzmarás köd

METAR: KOXC 182151Z 12005KT 1/2SM SN FZFG BKN015 OVC020 M07/M08 A3013 RMK AO2 SLP229 P0002 T10721083

Idő: 17:48 (22:48 UTC)


TAF: hiányzik

Meteorológiai megfigyelések és előrejelzések több, mint 4000 repülőtéren (METAR és TAF jelentéseket).

A térképen piros és sárga pontok jelzik az elérhető meteorológiai állomásokat.

Mozgassa az egeret a pont fölött, hogy megjelenjen az állomás neve.

Azután kattintson az időjárási megfigyelések és előrejelzések megtekintéséhez.

A térkép megváltoztatása: kattintson a fekete keresztel jelölt zöld gombra ráközelítéshez, a vonallal jelölt zöld gombra távolításhoz, vagy a zöld nyilakra a szomszédos térképek eléréséhez.


METAR-TAF: